Ely, NV

8:19 PM PST on December 10, 2016 (GMT -0800)
South Murry St | | Change Station
Active Advisory: Winter Weather Advisory

Elev 6542 ft 39.23 °N, 114.90 °W | Updated 5 seconds ago

Mostly Cloudy
Mostly Cloudy
44.4 °F
Feels Like 42 °F
N
4.0
Wind Variable Wind from SW

Today
High -- | Low -- °F
--% Chance of Precip.
Yesterday
High -- | Low -- °F
Precip. -- in
Pressure 29.82 in
Visibility 10.0 miles
Clouds Mostly Cloudy 5500 ft
Mostly Cloudy 8500 ft
Mostly Cloudy 11000 ft
Windchill 42 °F
Dew Point 33 °F
Humidity 65%
Rainfall 0.00 in
Snow Depth Not available.
6:48 AM 4:16 PM
Waxing Gibbous, 88% visible
METAR KELY 110353Z AUTO 17012KT 10SM BKN055 BKN085 BKN110 06/01 A2991 RMK AO2 RAE02 SLP096 P0000 T00610006
Pressure 29.82 in
Visibility 10.0 miles
Clouds Mostly Cloudy 5500 ft
Mostly Cloudy 8500 ft
Mostly Cloudy 11000 ft
Windchill 42 °F
Dew Point 33 °F
Humidity 65%
Rainfall 0.00 in
Snow Depth Not available.
6:48 AM 4:16 PM
Waxing Gibbous, 88% visible
METAR KELY 110353Z AUTO 17012KT 10SM BKN055 BKN085 BKN110 06/01 A2991 RMK AO2 RAE02 SLP096 P0000 T00610006

10-Day Weather Forecast

Almanac

Astronomy

Dec. 10, 2016 Rise Set
Actual Time
Civil Twilight
Nautical Twilight
Astronomical Twilight
Moon
Length of Visible Light
Length of Day
Tomorrow will be .
, % of the Moon is Illuminated

Today's Extremes

State Highs State Lows

Community

WunderPhotos

Upload Photos

1,956,704 photos uploaded!

WunderBlog® & News

Nearby

Air Quality

  Air Quality AQ Index Pollutant
Not available.

Snow Depth

Station Depth Elevation

Earthquake Activity

City Distance Mag. Time & Date
Minimum magnitude displayed is 2.5.

Coastal Water Temperatures

Place Temperature

Stations

Nearby Weather Stations

Station Location Temp. Windchill Dew Point Humidity Wind Precip. Elev Updated Type
                   

Watches & Warnings

Winter Weather Advisory
Issued: 1:41 PM PST Dec. 10, 2016 – National Weather Service

... Winter Weather Advisory remains in effect until 4 am PST
Sunday above 6500 feet...

* snow accumulations... 3 to 6 inches in elevations from 6000
feet to 7000 feet. 6 to 12 inches above 7000 feet.

* Elevation: above 6500 feet.

* Timing... snow intensity and coverage will increase through
Saturday night. The heaviest snow is expected to occur Saturday
afternoon before diminishing late Saturday night.

* Winds... 15 to 25 mph with isolated gusts to 35 mph.

* Impacts... travel over passes and summits could become difficult.
Unless you have proper vehicles, equipment, and experience,
travel in higher terrain or back country is not recommended.

* For a detailed view of the hazard area, visit
http://www.Wrh.NOAA.Gov/map

Precautionary/preparedness actions...

A Winter Weather Advisory means that travel difficulties are
expected due to wintry conditions. Be prepared for slippery roads
and limited visibilities, and use caution while driving. For the
latest Road conditions call 511 or visit www.Nvroads.Com.